Terminal Aerodrome Forecast
Issued by NWS

Home | Current Version | Previous Version | Text Only | Print | Product List | Glossary On
Versions: 1 2 3 4 5 6 7 8 9 10 11 12 13 14 15 16 17 18 19 20 21
000
FTUS43 KDLH 211600 AAB
TAFHYR
TAF AMD
KHYR 211610Z 2116/2212 12008KT P6SM OVC019
     FM211900 12009KT P6SM SCT019
     FM220500 15005KT P6SM SKC=

USA.gov is the U.S. government's official web portal to all federal, state and local government web resources and services.